createdAt,value
2017-05-09T00:00:47.458Z,3.10
2017-05-09T00:03:16.508Z,2.80
2017-05-09T00:05:46.151Z,2.40
2017-05-09T00:08:15.038Z,2.76
2017-05-09T00:10:43.942Z,2.96
2017-05-09T00:13:12.861Z,2.42
2017-05-09T00:15:42.542Z,3.04
2017-05-09T00:18:11.431Z,3.08
2017-05-09T00:20:40.379Z,3.42
2017-05-09T00:23:09.366Z,3.08
2017-05-09T00:25:38.249Z,3.32
2017-05-09T00:28:07.159Z,3.06
2017-05-09T00:30:36.807Z,2.84
2017-05-09T00:33:05.835Z,2.96
2017-05-09T00:35:34.734Z,2.58
2017-05-09T00:38:04.157Z,3.10
2017-05-09T00:40:33.820Z,3.26
2017-05-09T00:43:02.963Z,2.86
2017-05-09T00:45:32.638Z,3.04
2017-05-09T00:48:01.535Z,3.00
2017-05-09T00:50:30.438Z,3.18
2017-05-09T00:52:59.386Z,3.52
2017-05-09T00:55:28.308Z,2.62
2017-05-09T00:57:57.197Z,2.68
2017-05-09T01:00:26.118Z,3.38
2017-05-09T01:02:55.764Z,2.70
2017-05-09T01:05:24.663Z,2.90
2017-05-09T01:07:53.592Z,3.22
2017-05-09T01:10:22.542Z,2.82
2017-05-09T01:12:51.452Z,2.82
2017-05-09T01:15:20.533Z,2.48
2017-05-09T01:17:49.443Z,2.92
2017-05-09T01:20:18.331Z,3.06
2017-05-09T01:22:47.241Z,3.24
2017-05-09T01:25:16.178Z,3.30
2017-05-09T01:27:45.074Z,2.74
2017-05-09T01:30:14.022Z,2.94
2017-05-09T01:32:42.919Z,3.10
2017-05-09T01:35:12.543Z,2.90
2017-05-09T01:37:41.470Z,2.82
2017-05-09T01:40:10.374Z,2.80
2017-05-09T01:42:39.252Z,3.42
2017-05-09T01:45:08.171Z,4.14
2017-05-09T01:47:37.060Z,2.88
2017-05-09T01:50:05.950Z,3.46
2017-05-09T01:52:34.876Z,2.72
2017-05-09T01:55:03.769Z,3.32
2017-05-09T01:57:32.766Z,2.90
2017-05-09T02:00:02.399Z,3.00
2017-05-09T02:02:31.315Z,2.88
2017-05-09T02:05:00.211Z,3.10
2017-05-09T02:07:29.143Z,2.90
2017-05-09T02:09:58.031Z,3.02
2017-05-09T02:12:26.994Z,3.32
2017-05-09T02:14:55.886Z,3.18
2017-05-09T02:17:25.531Z,3.26
2017-05-09T02:19:54.462Z,3.72
2017-05-09T02:22:23.351Z,3.78
2017-05-09T02:24:53.065Z,3.38
2017-05-09T02:27:21.957Z,3.06
2017-05-09T02:29:50.846Z,3.10
2017-05-09T02:32:19.782Z,3.20
2017-05-09T02:34:48.695Z,3.26
2017-05-09T02:37:17.635Z,2.90
2017-05-09T02:39:46.527Z,3.28
2017-05-09T02:42:15.438Z,3.26
2017-05-09T02:44:44.510Z,3.92
2017-05-09T02:47:13.400Z,3.18
2017-05-09T02:49:42.326Z,3.40
2017-05-09T02:52:11.218Z,3.84
2017-05-09T02:54:40.102Z,3.58
2017-05-09T02:57:09.011Z,3.22
2017-05-09T02:59:37.908Z,3.54
2017-05-09T03:02:06.791Z,3.44
2017-05-09T03:04:35.700Z,3.08
2017-05-09T03:07:05.342Z,3.54
2017-05-09T03:09:34.263Z,3.76
2017-05-09T03:12:03.170Z,3.92
2017-05-09T03:14:32.065Z,3.16
2017-05-09T03:17:00.961Z,3.58
2017-05-09T03:19:30.626Z,4.10
2017-05-09T03:21:59.530Z,3.70
2017-05-09T03:24:28.467Z,3.52
2017-05-09T03:26:57.355Z,3.90
2017-05-09T03:29:26.475Z,3.70
2017-05-09T03:31:55.399Z,4.02
2017-05-09T03:34:24.282Z,3.84
2017-05-09T03:36:53.171Z,3.66
2017-05-09T03:39:22.091Z,3.50
2017-05-09T03:41:50.965Z,3.76
2017-05-09T03:44:19.890Z,3.74
2017-05-09T03:46:48.781Z,3.86
2017-05-09T03:49:17.671Z,4.00
2017-05-09T03:51:46.595Z,4.42
2017-05-09T03:54:16.234Z,4.48
2017-05-09T03:56:45.318Z,4.22
2017-05-09T03:59:14.230Z,4.16
2017-05-09T04:01:43.110Z,4.14
2017-05-09T04:04:12.035Z,3.82
2017-05-09T04:06:40.942Z,4.12
2017-05-09T04:09:09.831Z,3.80
2017-05-09T04:11:38.763Z,3.98
2017-05-09T04:14:07.690Z,3.86
2017-05-09T04:16:36.578Z,4.36
2017-05-09T04:19:05.533Z,4.48
2017-05-09T04:21:34.423Z,4.20
2017-05-09T04:24:03.367Z,3.78
2017-05-09T04:26:32.254Z,4.20
2017-05-09T04:29:01.154Z,4.20
2017-05-09T04:31:30.095Z,5.34
2017-05-09T04:33:59.004Z,4.56
2017-05-09T04:36:27.931Z,4.12
2017-05-09T04:38:56.832Z,4.50
2017-05-09T04:41:25.711Z,4.30
2017-05-09T04:43:54.638Z,4.66
2017-05-09T04:46:23.541Z,5.18
2017-05-09T04:48:52.434Z,4.32
2017-05-09T04:51:21.370Z,3.80
2017-05-09T04:53:50.255Z,4.38
2017-05-09T04:56:19.150Z,4.04
2017-05-09T04:58:48.075Z,5.78
2017-05-09T05:01:17.711Z,5.06
2017-05-09T05:03:46.631Z,5.44
2017-05-09T05:06:15.776Z,6.00
2017-05-09T05:08:45.438Z,4.82
2017-05-09T05:11:14.382Z,11.28
2017-05-09T05:13:43.294Z,6.86
2017-05-09T05:16:12.203Z,5.28
2017-05-09T05:18:41.171Z,4.78
2017-05-09T05:21:10.076Z,6.02
2017-05-09T05:23:38.979Z,5.68
2017-05-09T05:26:07.953Z,5.60
2017-05-09T05:28:36.843Z,5.30
2017-05-09T05:31:06.514Z,5.16
2017-05-09T05:33:35.393Z,5.90
2017-05-09T05:36:04.312Z,6.32
2017-05-09T05:38:33.947Z,4.60
2017-05-09T05:41:02.852Z,5.70
2017-05-09T05:43:31.779Z,6.42
2017-05-09T05:46:00.666Z,5.82
2017-05-09T05:48:29.682Z,6.04
2017-05-09T05:50:58.602Z,6.42
2017-05-09T05:53:27.494Z,6.36
2017-05-09T05:55:56.404Z,6.10
2017-05-09T05:58:25.328Z,6.28
2017-05-09T06:00:54.393Z,5.66
2017-05-09T06:03:23.378Z,5.88
2017-05-09T06:05:52.257Z,5.92
2017-05-09T06:08:21.174Z,5.72
2017-05-09T06:10:50.098Z,5.64
2017-05-09T06:13:19.018Z,5.44
2017-05-09T06:15:48.728Z,5.60
2017-05-09T06:18:17.585Z,5.60
2017-05-09T06:20:46.491Z,7.44
2017-05-09T06:23:16.178Z,5.82
2017-05-09T06:25:45.151Z,6.02
2017-05-09T06:28:14.007Z,6.26
2017-05-09T06:30:42.945Z,8.50
2017-05-09T06:33:11.843Z,6.92
2017-05-09T06:35:40.762Z,6.32
2017-05-09T06:38:09.674Z,5.02
2017-05-09T06:40:38.558Z,4.64
2017-05-09T06:43:07.466Z,5.28
2017-05-09T06:45:37.117Z,4.80
2017-05-09T06:48:06.953Z,5.30
2017-05-09T06:50:35.867Z,5.80
2017-05-09T06:53:04.817Z,5.72
2017-05-09T06:55:33.713Z,5.82
2017-05-09T06:58:02.779Z,5.98
2017-05-09T07:00:31.657Z,5.70
2017-05-09T07:03:02.266Z,6.28
2017-05-09T07:05:32.043Z,5.56
2017-05-09T07:08:00.944Z,5.28
2017-05-09T07:10:29.851Z,5.52
2017-05-09T07:12:58.782Z,5.50
2017-05-09T07:15:27.870Z,5.16
2017-05-09T07:17:56.870Z,5.28
2017-05-09T07:20:25.882Z,5.16
2017-05-09T07:22:54.826Z,4.66
2017-05-09T07:25:24.470Z,4.68
2017-05-09T07:27:53.365Z,5.40
2017-05-09T07:30:22.296Z,3.88
2017-05-09T07:32:51.198Z,4.14
2017-05-09T07:35:20.102Z,4.66
2017-05-09T07:37:49.105Z,3.80
2017-05-09T07:40:18.142Z,6.64
2017-05-09T07:42:47.806Z,3.90
2017-05-09T07:45:16.714Z,4.52
2017-05-09T07:47:45.624Z,3.90
2017-05-09T07:50:14.719Z,3.56
2017-05-09T07:52:43.673Z,3.54
2017-05-09T07:55:12.813Z,3.16
2017-05-09T07:57:41.731Z,4.06
2017-05-09T08:00:10.709Z,3.68
2017-05-09T08:02:40.337Z,3.86
2017-05-09T08:05:09.275Z,3.46
2017-05-09T08:07:38.461Z,3.42
2017-05-09T08:10:07.338Z,3.92
2017-05-09T08:12:36.699Z,3.22
2017-05-09T08:15:07.356Z,4.10
2017-05-09T08:17:36.870Z,3.66
2017-05-09T08:20:06.549Z,3.72
2017-05-09T08:22:35.486Z,3.52
2017-05-09T08:25:04.657Z,3.70
2017-05-09T08:27:33.565Z,3.64
2017-05-09T08:30:03.430Z,3.88
2017-05-09T08:32:32.375Z,3.76
2017-05-09T08:35:01.587Z,2.90
2017-05-09T08:37:30.518Z,3.72
2017-05-09T08:39:59.466Z,3.50
2017-05-09T08:42:28.506Z,3.26
2017-05-09T08:44:57.589Z,3.10
2017-05-09T08:47:28.506Z,3.82
2017-05-09T08:49:57.442Z,2.68
2017-05-09T08:52:27.127Z,3.60
2017-05-09T08:54:56.934Z,3.72
2017-05-09T08:57:25.862Z,4.00
2017-05-09T08:59:55.522Z,3.52
2017-05-09T09:02:24.417Z,3.94
2017-05-09T09:04:53.352Z,4.38
2017-05-09T09:07:22.983Z,3.60
2017-05-09T09:09:51.908Z,4.08
2017-05-09T09:12:20.802Z,4.06
2017-05-09T09:14:49.741Z,4.62
2017-05-09T09:17:18.647Z,3.92
2017-05-09T09:19:47.571Z,4.04
2017-05-09T09:22:16.550Z,4.28
2017-05-09T09:24:45.449Z,3.72
2017-05-09T09:27:14.381Z,4.16
2017-05-09T09:29:43.301Z,4.22
2017-05-09T09:32:12.178Z,4.12
2017-05-09T09:34:41.181Z,4.16
2017-05-09T09:37:10.134Z,3.60
2017-05-09T09:39:39.046Z,3.88
2017-05-09T09:42:07.958Z,3.68
2017-05-09T09:44:36.862Z,3.64
2017-05-09T09:47:05.786Z,4.36
2017-05-09T09:49:35.472Z,3.34
2017-05-09T09:52:04.383Z,3.46
2017-05-09T09:54:34.022Z,2.98
2017-05-09T09:57:02.994Z,3.34
2017-05-09T09:59:32.638Z,3.66
2017-05-09T10:02:01.543Z,3.70
2017-05-09T10:04:30.511Z,3.32
2017-05-09T10:06:59.442Z,3.30
2017-05-09T10:09:28.370Z,3.60
2017-05-09T10:11:58.034Z,3.52
2017-05-09T10:14:26.987Z,4.78
2017-05-09T10:16:56.049Z,4.14
2017-05-09T10:19:25.734Z,4.38
2017-05-09T10:21:54.621Z,3.80
2017-05-09T10:24:23.542Z,4.00
2017-05-09T10:26:53.207Z,4.52
2017-05-09T10:29:22.135Z,3.88
2017-05-09T10:31:51.799Z,3.78
2017-05-09T10:34:20.717Z,2.96
2017-05-09T10:36:49.625Z,3.58
2017-05-09T10:39:19.301Z,3.60
2017-05-09T10:41:48.220Z,3.60
2017-05-09T10:44:17.874Z,3.00
2017-05-09T10:46:46.843Z,3.40
2017-05-09T10:49:15.919Z,3.38
2017-05-09T10:51:44.833Z,3.54
2017-05-09T10:54:13.755Z,3.88
2017-05-09T10:56:42.687Z,3.88
2017-05-09T10:59:12.377Z,3.36
2017-05-09T11:01:41.306Z,3.74
2017-05-09T11:04:10.417Z,3.12
2017-05-09T11:06:39.354Z,3.20
2017-05-09T11:09:09.701Z,3.60
2017-05-09T11:11:39.370Z,3.58
2017-05-09T11:14:08.294Z,3.56
2017-05-09T11:16:37.805Z,2.82
2017-05-09T11:19:06.623Z,3.52
2017-05-09T11:21:35.534Z,2.98
2017-05-09T11:24:04.537Z,3.06
2017-05-09T11:26:33.465Z,3.50
2017-05-09T11:29:02.823Z,2.72
2017-05-09T11:31:32.664Z,3.36
2017-05-09T11:34:01.563Z,3.04
2017-05-09T11:36:30.466Z,3.56
2017-05-09T11:38:59.411Z,3.70
2017-05-09T11:41:28.386Z,3.18
2017-05-09T11:43:57.289Z,4.50
2017-05-09T11:46:26.230Z,3.52
2017-05-09T11:48:55.164Z,3.40
2017-05-09T11:51:24.103Z,3.74
2017-05-09T11:53:53.005Z,3.92
2017-05-09T11:56:21.902Z,3.84
2017-05-09T11:58:53.423Z,3.26
2017-05-09T12:01:22.819Z,3.30
2017-05-09T12:03:51.799Z,3.34
2017-05-09T12:06:21.089Z,3.72
2017-05-09T12:08:49.998Z,3.48
2017-05-09T12:11:18.921Z,3.34
2017-05-09T12:13:47.842Z,3.38
2017-05-09T12:16:17.506Z,2.90
2017-05-09T12:18:46.443Z,2.94
2017-05-09T12:21:16.083Z,3.22
2017-05-09T12:23:44.993Z,3.34
2017-05-09T12:26:13.943Z,3.20
2017-05-09T12:28:42.854Z,3.24
2017-05-09T12:31:12.494Z,3.50
2017-05-09T12:33:41.423Z,3.38
2017-05-09T12:36:10.323Z,2.98
2017-05-09T12:38:39.988Z,3.50
2017-05-09T12:41:09.789Z,3.72
2017-05-09T12:43:38.687Z,3.40
2017-05-09T12:46:07.610Z,3.02
2017-05-09T12:48:36.541Z,2.76
2017-05-09T12:51:05.547Z,3.10
2017-05-09T12:53:34.491Z,2.98
2017-05-09T12:56:03.424Z,2.44
2017-05-09T12:58:32.365Z,2.92
2017-05-09T13:01:01.360Z,2.72
2017-05-09T13:03:30.244Z,2.60
2017-05-09T13:05:59.131Z,3.04
2017-05-09T13:08:28.583Z,3.66
2017-05-09T13:10:57.487Z,3.02
2017-05-09T13:13:26.447Z,2.94
2017-05-09T13:15:56.123Z,3.00
2017-05-09T13:18:25.031Z,3.32
2017-05-09T13:20:53.935Z,3.04
2017-05-09T13:23:23.598Z,3.06
2017-05-09T13:25:52.502Z,3.35
2017-05-09T13:28:21.496Z,3.26
2017-05-09T13:30:50.413Z,3.42
2017-05-09T13:33:19.323Z,3.30
2017-05-09T13:35:48.250Z,3.86
2017-05-09T13:38:17.167Z,3.12
2017-05-09T13:40:46.081Z,2.78
2017-05-09T13:43:15.077Z,2.54
2017-05-09T13:45:43.983Z,2.56
2017-05-09T13:48:12.967Z,3.10
2017-05-09T13:50:41.964Z,3.78
2017-05-09T13:53:10.870Z,2.84
2017-05-09T13:55:40.521Z,3.32
2017-05-09T13:58:09.526Z,3.00
2017-05-09T14:00:38.666Z,3.08
2017-05-09T14:03:07.545Z,3.66
2017-05-09T14:05:36.474Z,3.24
2017-05-09T14:08:05.390Z,2.72
2017-05-09T14:10:34.295Z,3.06
2017-05-09T14:13:03.338Z,2.84
2017-05-09T14:15:32.962Z,3.00
2017-05-09T14:18:02.039Z,2.26
2017-05-09T14:20:30.942Z,4.06
2017-05-09T14:22:59.867Z,3.64
2017-05-09T14:25:28.762Z,3.74
2017-05-09T14:27:57.696Z,2.52
2017-05-09T14:30:27.330Z,3.10
2017-05-09T14:32:56.241Z,3.50
2017-05-09T14:35:26.007Z,2.74
2017-05-09T14:37:54.895Z,3.18
2017-05-09T14:40:23.820Z,3.84
2017-05-09T14:42:53.506Z,5.18
2017-05-09T14:45:22.424Z,3.78
2017-05-09T14:47:52.079Z,3.30
2017-05-09T14:50:21.066Z,3.04
2017-05-09T14:52:50.058Z,3.80
2017-05-09T14:55:19.023Z,3.72
2017-05-09T14:57:48.067Z,4.72
2017-05-09T15:00:17.180Z,7.72
2017-05-09T15:02:46.842Z,6.86
2017-05-09T15:05:17.545Z,8.78
2017-05-09T15:07:47.024Z,5.82
2017-05-09T15:10:16.664Z,3.94
2017-05-09T15:12:46.306Z,3.24
2017-05-09T15:15:15.264Z,3.52
2017-05-09T15:17:45.845Z,3.22
2017-05-09T15:20:14.855Z,2.70
2017-05-09T15:22:43.914Z,3.44
2017-05-09T15:25:12.902Z,3.60
2017-05-09T15:27:41.918Z,4.06
2017-05-09T15:30:12.262Z,3.12
2017-05-09T15:32:41.875Z,3.48
2017-05-09T15:35:11.928Z,3.10
2017-05-09T15:37:41.088Z,3.42
2017-05-09T15:40:10.042Z,3.46
2017-05-09T15:42:39.013Z,4.68
2017-05-09T15:45:08.645Z,10.10
2017-05-09T15:47:37.550Z,4.40
2017-05-09T15:50:06.511Z,2.74
2017-05-09T15:52:35.415Z,3.06
2017-05-09T15:55:04.312Z,4.08
2017-05-09T16:10:33.339Z,2.78
2017-05-09T16:13:02.232Z,3.74
2017-05-09T16:15:31.203Z,4.06
2017-05-09T16:18:01.363Z,3.56
2017-05-09T16:20:30.214Z,3.46
2017-05-09T16:22:59.695Z,4.08
2017-05-09T16:25:28.669Z,3.66
2017-05-09T16:27:57.586Z,3.54
2017-05-09T16:30:26.521Z,3.58
2017-05-09T16:32:55.409Z,4.50
2017-05-09T16:35:25.127Z,3.62
2017-05-09T16:37:54.025Z,4.26
2017-05-09T16:40:23.679Z,3.32
2017-05-09T16:42:52.645Z,3.32
2017-05-09T16:45:21.578Z,3.94
2017-05-09T16:47:50.474Z,3.90
2017-05-09T16:50:19.428Z,3.76
2017-05-09T16:52:48.335Z,3.24
2017-05-09T16:55:18.112Z,4.22
2017-05-09T16:57:47.006Z,4.20
2017-05-09T17:00:16.735Z,3.42
2017-05-09T17:02:45.710Z,3.60
2017-05-09T17:05:14.614Z,3.40
2017-05-09T17:07:43.534Z,4.30
2017-05-09T17:10:12.474Z,3.78
2017-05-09T17:12:42.106Z,3.60
2017-05-09T17:15:11.188Z,4.16
2017-05-09T17:17:40.134Z,3.76
2017-05-09T17:20:09.063Z,4.30
2017-05-09T17:22:38.718Z,3.70
2017-05-09T17:25:07.623Z,4.30
2017-05-09T17:27:36.588Z,4.26
2017-05-09T17:30:05.542Z,7.68
2017-05-09T17:32:35.220Z,4.94
2017-05-09T17:35:04.153Z,3.86
2017-05-09T17:37:33.064Z,3.70
2017-05-09T17:40:01.991Z,3.40
2017-05-09T17:42:30.938Z,3.94
2017-05-09T17:45:00.626Z,4.00
2017-05-09T17:47:29.611Z,4.58
2017-05-09T17:49:58.576Z,4.18
2017-05-09T17:52:27.474Z,3.42
2017-05-09T17:54:56.438Z,3.38
2017-05-09T17:57:25.459Z,4.08
2017-05-09T17:59:54.371Z,3.28
2017-05-09T18:02:23.410Z,3.54
2017-05-09T18:04:52.386Z,4.04
2017-05-09T18:07:21.300Z,3.50
2017-05-09T18:09:50.222Z,3.66
2017-05-09T18:12:19.124Z,4.88
2017-05-09T18:14:48.107Z,3.46
2017-05-09T18:17:17.030Z,3.82
2017-05-09T18:19:46.703Z,4.48
2017-05-09T18:22:15.640Z,8.24
2017-05-09T18:24:45.268Z,4.50
2017-05-09T18:27:14.196Z,4.08
2017-05-09T18:29:43.127Z,3.66
2017-05-09T18:32:12.779Z,3.70
2017-05-09T18:34:41.727Z,3.38
2017-05-09T18:37:10.641Z,3.72
2017-05-09T18:39:39.530Z,4.62
2017-05-09T18:42:08.459Z,4.40
2017-05-09T18:44:37.447Z,4.04
2017-05-09T18:47:06.374Z,4.00
2017-05-09T18:49:36.063Z,4.26
2017-05-09T18:52:04.976Z,3.78
2017-05-09T18:54:34.741Z,4.12
2017-05-09T18:57:03.729Z,3.96
2017-05-09T18:59:32.637Z,3.72
2017-05-09T19:02:01.553Z,4.20
2017-05-09T19:04:31.227Z,3.78
2017-05-09T19:07:00.187Z,4.50
2017-05-09T19:09:29.086Z,4.88
2017-05-09T19:11:58.976Z,12.24
2017-05-09T19:14:27.937Z,4.10
2017-05-09T19:26:41.876Z,4.14
2017-05-09T19:29:10.854Z,4.26
2017-05-09T19:31:39.726Z,4.06
2017-05-09T19:34:09.385Z,3.54
2017-05-09T19:36:38.335Z,3.08
2017-05-09T19:39:07.990Z,3.30
2017-05-09T19:41:36.919Z,3.92
2017-05-09T19:44:05.905Z,3.72
2017-05-09T19:46:35.587Z,3.90
2017-05-09T19:49:04.498Z,3.82
2017-05-09T19:51:33.487Z,4.12
2017-05-09T19:54:02.402Z,3.50
2017-05-09T19:56:32.025Z,4.80
2017-05-09T19:59:01.796Z,6.00
2017-05-09T20:01:30.783Z,4.22
2017-05-09T20:03:59.722Z,3.86
2017-05-09T20:06:29.392Z,3.44
2017-05-09T20:08:58.322Z,5.28
2017-05-09T20:11:27.951Z,6.00
2017-05-09T20:13:56.862Z,6.04
2017-05-09T20:16:25.769Z,5.36
2017-05-09T20:18:54.732Z,4.42
2017-05-09T20:21:23.627Z,4.98
2017-05-09T20:23:52.548Z,4.60
2017-05-09T20:26:21.507Z,5.00
2017-05-09T20:28:50.423Z,6.08
2017-05-09T20:31:19.341Z,4.98
2017-05-09T20:33:49.024Z,5.08
2017-05-09T20:36:17.948Z,5.32
2017-05-09T20:38:47.190Z,5.14
2017-05-09T20:41:16.208Z,5.86
2017-05-09T20:43:45.143Z,4.56
2017-05-09T20:46:14.034Z,4.10
2017-05-09T20:48:42.981Z,4.86
2017-05-09T20:51:12.803Z,4.06
2017-05-09T20:53:41.732Z,4.88
2017-05-09T20:56:10.635Z,4.60
2017-05-09T20:58:39.574Z,4.16
2017-05-09T21:01:08.536Z,5.18
2017-05-09T21:03:38.202Z,4.56
2017-05-09T21:06:07.102Z,4.06
2017-05-09T21:08:36.146Z,4.24
2017-05-09T21:11:05.019Z,4.38
2017-05-09T21:13:34.682Z,5.02
2017-05-09T21:16:03.606Z,4.02
2017-05-09T21:18:32.521Z,4.02
2017-05-09T21:21:02.157Z,5.04
2017-05-09T21:23:31.105Z,4.60
2017-05-09T21:26:00.781Z,5.12
2017-05-09T21:28:29.676Z,4.68
2017-05-09T21:30:58.607Z,4.76
2017-05-09T21:33:28.250Z,5.14
2017-05-09T21:35:58.789Z,4.60
2017-05-09T21:38:28.506Z,4.74
2017-05-09T21:40:57.427Z,4.64
2017-05-09T21:43:27.108Z,5.72
2017-05-09T21:45:55.997Z,5.62
2017-05-09T21:48:24.886Z,5.54
2017-05-09T21:50:53.811Z,5.38
2017-05-09T21:53:23.491Z,4.78
2017-05-09T21:55:52.495Z,5.62
2017-05-09T21:58:21.393Z,4.86
2017-05-09T22:00:50.293Z,5.32
2017-05-09T22:03:20.001Z,5.72
2017-05-09T22:08:24.750Z,5.98
2017-05-09T22:10:54.403Z,5.50
2017-05-09T22:13:23.306Z,4.84
2017-05-09T22:15:52.922Z,5.52
2017-05-09T22:18:21.912Z,6.38
2017-05-09T22:20:50.795Z,4.90
2017-05-09T22:23:19.711Z,5.26
2017-05-09T22:25:48.633Z,5.00
2017-05-09T22:28:18.655Z,5.36
2017-05-09T22:30:47.569Z,5.24
2017-05-09T22:33:16.654Z,5.30
2017-05-09T22:35:45.567Z,4.72
2017-05-09T22:38:15.361Z,5.56
2017-05-09T22:40:44.384Z,5.02
2017-05-09T22:43:14.043Z,6.12
2017-05-09T22:45:42.990Z,5.20
2017-05-09T22:48:11.913Z,4.80
2017-05-09T22:50:40.821Z,5.22
2017-05-09T22:53:09.774Z,5.12
2017-05-09T22:55:38.667Z,5.56
2017-05-09T22:58:07.571Z,6.52
2017-05-09T23:00:36.501Z,5.74
2017-05-09T23:03:05.400Z,5.74
2017-05-09T23:05:34.290Z,5.58
2017-05-09T23:08:03.959Z,6.04
2017-05-09T23:10:32.867Z,5.88
2017-05-09T23:13:01.766Z,5.34
2017-05-09T23:15:30.718Z,6.92
2017-05-09T23:17:59.602Z,6.40
2017-05-09T23:20:28.502Z,5.04
2017-05-09T23:22:57.430Z,5.96
2017-05-09T23:25:26.335Z,5.22
2017-05-09T23:27:56.022Z,5.90
2017-05-09T23:30:24.895Z,6.28
2017-05-09T23:32:53.926Z,5.62
2017-05-09T23:35:23.596Z,6.06
2017-05-09T23:37:52.502Z,6.02
2017-05-09T23:40:21.383Z,6.68
2017-05-09T23:42:50.322Z,6.20
2017-05-09T23:45:19.225Z,6.70
2017-05-09T23:47:48.133Z,5.86
2017-05-09T23:50:17.050Z,5.46
2017-05-09T23:52:45.950Z,7.62
2017-05-09T23:55:14.872Z,6.18
2017-05-09T23:57:44.538Z,7.48
